sensor_id;sensor_type;location;lat;lon;timestamp;P1;durP1;ratioP1;P2;durP2;ratioP2
434;SDS011;204;48.942;9.256;2023-12-07T00:00:35;19.70;;;18.60;;
434;SDS011;204;48.942;9.256;2023-12-07T00:03:01;22.77;;;20.23;;
434;SDS011;204;48.942;9.256;2023-12-07T00:05:26;20.83;;;19.83;;
434;SDS011;204;48.942;9.256;2023-12-07T00:07:52;22.07;;;18.90;;
434;SDS011;204;48.942;9.256;2023-12-07T00:10:18;21.57;;;18.90;;
434;SDS011;204;48.942;9.256;2023-12-07T00:12:43;18.47;;;17.23;;
434;SDS011;204;48.942;9.256;2023-12-07T00:15:09;20.10;;;18.63;;
434;SDS011;204;48.942;9.256;2023-12-07T00:17:34;20.13;;;18.00;;
434;SDS011;204;48.942;9.256;2023-12-07T00:20:00;19.07;;;17.60;;
434;SDS011;204;48.942;9.256;2023-12-07T00:22:26;20.33;;;19.33;;
434;SDS011;204;48.942;9.256;2023-12-07T00:24:53;19.95;;;17.92;;
434;SDS011;204;48.942;9.256;2023-12-07T00:27:19;18.20;;;16.60;;
434;SDS011;204;48.942;9.256;2023-12-07T00:29:44;17.97;;;16.53;;
434;SDS011;204;48.942;9.256;2023-12-07T00:32:10;18.77;;;17.80;;
434;SDS011;204;48.942;9.256;2023-12-07T00:34:35;16.77;;;15.97;;
434;SDS011;204;48.942;9.256;2023-12-07T00:37:01;18.27;;;17.27;;
434;SDS011;204;48.942;9.256;2023-12-07T00:39:28;21.08;;;17.90;;
434;SDS011;204;48.942;9.256;2023-12-07T00:41:53;21.40;;;18.83;;
434;SDS011;204;48.942;9.256;2023-12-07T00:44:19;17.70;;;16.27;;
434;SDS011;204;48.942;9.256;2023-12-07T00:46:44;16.17;;;15.37;;
434;SDS011;204;48.942;9.256;2023-12-07T00:49:10;19.27;;;16.60;;
434;SDS011;204;48.942;9.256;2023-12-07T00:51:35;19.10;;;16.43;;
434;SDS011;204;48.942;9.256;2023-12-07T00:54:01;22.87;;;18.10;;
434;SDS011;204;48.942;9.256;2023-12-07T00:56:26;20.40;;;16.50;;
434;SDS011;204;48.942;9.256;2023-12-07T00:58:52;17.87;;;16.93;;
434;SDS011;204;48.942;9.256;2023-12-07T01:01:18;18.00;;;16.90;;
434;SDS011;204;48.942;9.256;2023-12-07T01:03:43;18.40;;;17.33;;
434;SDS011;204;48.942;9.256;2023-12-07T01:06:09;18.30;;;16.97;;
434;SDS011;204;48.942;9.256;2023-12-07T01:08:37;21.70;;;17.42;;
434;SDS011;204;48.942;9.256;2023-12-07T01:11:03;18.93;;;16.60;;
434;SDS011;204;48.942;9.256;2023-12-07T01:13:30;20.60;;;17.55;;
434;SDS011;204;48.942;9.256;2023-12-07T01:15:55;19.47;;;16.80;;
434;SDS011;204;48.942;9.256;2023-12-07T01:18:21;20.17;;;17.25;;
434;SDS011;204;48.942;9.256;2023-12-07T01:20:47;18.23;;;17.20;;
434;SDS011;204;48.942;9.256;2023-12-07T01:23:13;17.90;;;16.85;;
434;SDS011;204;48.942;9.256;2023-12-07T01:25:39;16.95;;;16.08;;
434;SDS011;204;48.942;9.256;2023-12-07T01:28:04;17.43;;;16.00;;
434;SDS011;204;48.942;9.256;2023-12-07T01:30:30;21.20;;;16.90;;
434;SDS011;204;48.942;9.256;2023-12-07T01:32:55;17.80;;;16.90;;
434;SDS011;204;48.942;9.256;2023-12-07T01:35:21;18.87;;;16.53;;
434;SDS011;204;48.942;9.256;2023-12-07T01:37:47;20.87;;;17.43;;
434;SDS011;204;48.942;9.256;2023-12-07T01:40:12;21.27;;;17.07;;
434;SDS011;204;48.942;9.256;2023-12-07T01:42:40;19.17;;;17.17;;
434;SDS011;204;48.942;9.256;2023-12-07T01:45:14;16.00;;;15.20;;
434;SDS011;204;48.942;9.256;2023-12-07T01:47:40;17.23;;;16.37;;
434;SDS011;204;48.942;9.256;2023-12-07T01:50:06;19.23;;;16.15;;
434;SDS011;204;48.942;9.256;2023-12-07T01:52:35;17.00;;;16.08;;
434;SDS011;204;48.942;9.256;2023-12-07T01:55:03;17.48;;;16.33;;
434;SDS011;204;48.942;9.256;2023-12-07T01:57:30;17.83;;;16.23;;
434;SDS011;204;48.942;9.256;2023-12-07T01:59:56;19.77;;;17.40;;
434;SDS011;204;48.942;9.256;2023-12-07T02:02:21;19.60;;;18.60;;
434;SDS011;204;48.942;9.256;2023-12-07T02:04:47;17.70;;;16.80;;
434;SDS011;204;48.942;9.256;2023-12-07T02:07:13;23.63;;;18.03;;
434;SDS011;204;48.942;9.256;2023-12-07T02:09:39;19.87;;;18.07;;
434;SDS011;204;48.942;9.256;2023-12-07T02:12:04;19.70;;;17.77;;
434;SDS011;204;48.942;9.256;2023-12-07T02:14:30;20.50;;;18.37;;
434;SDS011;204;48.942;9.256;2023-12-07T02:17:08;18.90;;;17.20;;
434;SDS011;204;48.942;9.256;2023-12-07T02:19:51;21.48;;;19.00;;
434;SDS011;204;48.942;9.256;2023-12-07T02:22:29;17.05;;;16.08;;
434;SDS011;204;48.942;9.256;2023-12-07T02:25:03;17.98;;;17.08;;
434;SDS011;204;48.942;9.256;2023-12-07T02:27:37;18.92;;;17.50;;
434;SDS011;204;48.942;9.256;2023-12-07T02:30:12;22.67;;;19.63;;
434;SDS011;204;48.942;9.256;2023-12-07T02:32:39;20.85;;;17.83;;
434;SDS011;204;48.942;9.256;2023-12-07T02:35:09;21.60;;;18.83;;
434;SDS011;204;48.942;9.256;2023-12-07T02:37:39;21.70;;;19.20;;
434;SDS011;204;48.942;9.256;2023-12-07T02:40:10;21.42;;;19.35;;
434;SDS011;204;48.942;9.256;2023-12-07T02:42:37;21.92;;;19.42;;
434;SDS011;204;48.942;9.256;2023-12-07T02:45:05;20.17;;;18.55;;
434;SDS011;204;48.942;9.256;2023-12-07T02:47:32;21.48;;;20.38;;
434;SDS011;204;48.942;9.256;2023-12-07T02:49:58;19.87;;;18.70;;
434;SDS011;204;48.942;9.256;2023-12-07T02:52:24;20.20;;;19.20;;
434;SDS011;204;48.942;9.256;2023-12-07T02:54:50;18.60;;;17.70;;
434;SDS011;204;48.942;9.256;2023-12-07T02:57:15;23.87;;;20.13;;
434;SDS011;204;48.942;9.256;2023-12-07T02:59:41;19.37;;;18.37;;
434;SDS011;204;48.942;9.256;2023-12-07T03:02:06;20.47;;;19.50;;
434;SDS011;204;48.942;9.256;2023-12-07T03:04:32;21.17;;;19.50;;
434;SDS011;204;48.942;9.256;2023-12-07T03:06:58;22.80;;;20.20;;
434;SDS011;204;48.942;9.256;2023-12-07T03:09:24;21.63;;;18.27;;
434;SDS011;204;48.942;9.256;2023-12-07T03:11:49;22.40;;;19.43;;
434;SDS011;204;48.942;9.256;2023-12-07T03:14:15;22.58;;;19.02;;
434;SDS011;204;48.942;9.256;2023-12-07T03:16:41;21.23;;;19.10;;
434;SDS011;204;48.942;9.256;2023-12-07T03:19:07;21.93;;;19.80;;
434;SDS011;204;48.942;9.256;2023-12-07T03:21:32;24.50;;;20.70;;
434;SDS011;204;48.942;9.256;2023-12-07T03:23:58;22.73;;;20.87;;
434;SDS011;204;48.942;9.256;2023-12-07T03:26:23;27.27;;;21.37;;
434;SDS011;204;48.942;9.256;2023-12-07T03:28:49;21.50;;;20.40;;
434;SDS011;204;48.942;9.256;2023-12-07T03:31:14;24.80;;;21.63;;
434;SDS011;204;48.942;9.256;2023-12-07T03:33:43;28.57;;;24.20;;
434;SDS011;204;48.942;9.256;2023-12-07T03:36:10;27.02;;;24.80;;
434;SDS011;204;48.942;9.256;2023-12-07T03:38:36;26.98;;;24.40;;
434;SDS011;204;48.942;9.256;2023-12-07T03:41:02;30.37;;;24.50;;
434;SDS011;204;48.942;9.256;2023-12-07T03:43:28;24.75;;;23.02;;
434;SDS011;204;48.942;9.256;2023-12-07T03:45:53;25.67;;;24.17;;
434;SDS011;204;48.942;9.256;2023-12-07T03:48:19;24.90;;;23.00;;
434;SDS011;204;48.942;9.256;2023-12-07T03:50:44;26.07;;;23.50;;
434;SDS011;204;48.942;9.256;2023-12-07T03:53:10;24.80;;;23.63;;
434;SDS011;204;48.942;9.256;2023-12-07T03:55:36;23.77;;;22.60;;
434;SDS011;204;48.942;9.256;2023-12-07T03:58:02;23.23;;;22.07;;
434;SDS011;204;48.942;9.256;2023-12-07T04:00:27;24.90;;;22.70;;
434;SDS011;204;48.942;9.256;2023-12-07T04:02:53;24.10;;;22.80;;
434;SDS011;204;48.942;9.256;2023-12-07T04:05:18;24.90;;;22.33;;
434;SDS011;204;48.942;9.256;2023-12-07T04:07:44;24.40;;;22.10;;
434;SDS011;204;48.942;9.256;2023-12-07T04:10:10;23.50;;;21.60;;
434;SDS011;204;48.942;9.256;2023-12-07T04:12:36;30.20;;;23.67;;
434;SDS011;204;48.942;9.256;2023-12-07T04:15:02;23.60;;;21.75;;
434;SDS011;204;48.942;9.256;2023-12-07T04:17:27;27.80;;;22.53;;
434;SDS011;204;48.942;9.256;2023-12-07T04:19:53;24.90;;;22.50;;
434;SDS011;204;48.942;9.256;2023-12-07T04:22:19;25.23;;;22.47;;
434;SDS011;204;48.942;9.256;2023-12-07T04:24:44;26.70;;;23.10;;
434;SDS011;204;48.942;9.256;2023-12-07T04:27:10;25.93;;;22.80;;
434;SDS011;204;48.942;9.256;2023-12-07T04:29:35;31.80;;;24.90;;
434;SDS011;204;48.942;9.256;2023-12-07T04:32:01;28.03;;;26.33;;
434;SDS011;204;48.942;9.256;2023-12-07T04:34:27;34.23;;;31.97;;
434;SDS011;204;48.942;9.256;2023-12-07T04:36:52;33.13;;;31.53;;
434;SDS011;204;48.942;9.256;2023-12-07T04:39:18;32.33;;;30.73;;
434;SDS011;204;48.942;9.256;2023-12-07T04:41:44;33.40;;;31.80;;
434;SDS011;204;48.942;9.256;2023-12-07T04:44:09;35.50;;;33.80;;
434;SDS011;204;48.942;9.256;2023-12-07T04:46:35;36.40;;;33.47;;
434;SDS011;204;48.942;9.256;2023-12-07T04:49:01;36.75;;;33.25;;
434;SDS011;204;48.942;9.256;2023-12-07T04:51:26;35.70;;;32.77;;
434;SDS011;204;48.942;9.256;2023-12-07T04:53:52;34.40;;;32.70;;
434;SDS011;204;48.942;9.256;2023-12-07T04:56:17;33.63;;;31.97;;
434;SDS011;204;48.942;9.256;2023-12-07T04:58:43;35.27;;;33.03;;
434;SDS011;204;48.942;9.256;2023-12-07T05:01:09;36.90;;;34.58;;
434;SDS011;204;48.942;9.256;2023-12-07T05:03:35;43.63;;;39.10;;
434;SDS011;204;48.942;9.256;2023-12-07T05:06:00;42.03;;;38.47;;
434;SDS011;204;48.942;9.256;2023-12-07T05:08:26;45.80;;;43.60;;
434;SDS011;204;48.942;9.256;2023-12-07T05:10:52;45.93;;;41.83;;
434;SDS011;204;48.942;9.256;2023-12-07T05:13:17;49.22;;;41.95;;
434;SDS011;204;48.942;9.256;2023-12-07T05:15:43;44.30;;;39.77;;
434;SDS011;204;48.942;9.256;2023-12-07T05:18:09;43.27;;;38.37;;
434;SDS011;204;48.942;9.256;2023-12-07T05:20:34;40.43;;;37.50;;
434;SDS011;204;48.942;9.256;2023-12-07T05:23:03;43.72;;;37.97;;
434;SDS011;204;48.942;9.256;2023-12-07T05:25:29;45.58;;;40.45;;
434;SDS011;204;48.942;9.256;2023-12-07T05:27:55;45.13;;;40.50;;
434;SDS011;204;48.942;9.256;2023-12-07T05:30:21;50.90;;;40.70;;
434;SDS011;204;48.942;9.256;2023-12-07T05:32:46;47.77;;;38.90;;
434;SDS011;204;48.942;9.256;2023-12-07T05:35:12;48.40;;;41.08;;
434;SDS011;204;48.942;9.256;2023-12-07T05:37:38;49.20;;;45.40;;
434;SDS011;204;48.942;9.256;2023-12-07T05:40:04;48.03;;;42.07;;
434;SDS011;204;48.942;9.256;2023-12-07T05:42:30;43.70;;;41.60;;
434;SDS011;204;48.942;9.256;2023-12-07T05:44:56;50.60;;;41.97;;
434;SDS011;204;48.942;9.256;2023-12-07T05:47:22;47.70;;;41.00;;
434;SDS011;204;48.942;9.256;2023-12-07T05:49:48;41.70;;;36.20;;
434;SDS011;204;48.942;9.256;2023-12-07T05:52:14;42.00;;;33.80;;
434;SDS011;204;48.942;9.256;2023-12-07T05:54:39;49.90;;;40.70;;
434;SDS011;204;48.942;9.256;2023-12-07T05:57:07;50.20;;;41.53;;
434;SDS011;204;48.942;9.256;2023-12-07T05:59:36;47.07;;;37.07;;
434;SDS011;204;48.942;9.256;2023-12-07T06:02:03;37.67;;;34.00;;
434;SDS011;204;48.942;9.256;2023-12-07T06:04:29;47.22;;;39.33;;
434;SDS011;204;48.942;9.256;2023-12-07T06:06:55;44.10;;;39.93;;
434;SDS011;204;48.942;9.256;2023-12-07T06:09:20;38.20;;;35.10;;
434;SDS011;204;48.942;9.256;2023-12-07T06:11:46;40.73;;;35.33;;
434;SDS011;204;48.942;9.256;2023-12-07T06:14:12;41.47;;;34.53;;
434;SDS011;204;48.942;9.256;2023-12-07T06:16:37;38.43;;;34.90;;
434;SDS011;204;48.942;9.256;2023-12-07T06:19:03;37.40;;;34.13;;
434;SDS011;204;48.942;9.256;2023-12-07T06:21:29;40.57;;;38.27;;
434;SDS011;204;48.942;9.256;2023-12-07T06:23:56;40.72;;;36.17;;
434;SDS011;204;48.942;9.256;2023-12-07T06:26:23;38.33;;;35.72;;
434;SDS011;204;48.942;9.256;2023-12-07T06:28:49;37.53;;;35.40;;
434;SDS011;204;48.942;9.256;2023-12-07T06:31:15;42.27;;;36.53;;
434;SDS011;204;48.942;9.256;2023-12-07T06:33:44;38.33;;;35.30;;
434;SDS011;204;48.942;9.256;2023-12-07T06:36:10;44.00;;;38.60;;
434;SDS011;204;48.942;9.256;2023-12-07T06:38:36;39.73;;;35.77;;
434;SDS011;204;48.942;9.256;2023-12-07T06:41:03;39.22;;;36.78;;
434;SDS011;204;48.942;9.256;2023-12-07T06:43:29;38.67;;;33.80;;
434;SDS011;204;48.942;9.256;2023-12-07T06:45:54;37.03;;;33.00;;
434;SDS011;204;48.942;9.256;2023-12-07T06:48:20;35.97;;;31.77;;
434;SDS011;204;48.942;9.256;2023-12-07T06:50:45;39.27;;;31.50;;
434;SDS011;204;48.942;9.256;2023-12-07T06:53:11;42.20;;;34.27;;
434;SDS011;204;48.942;9.256;2023-12-07T06:55:36;35.67;;;31.17;;
434;SDS011;204;48.942;9.256;2023-12-07T06:58:02;40.17;;;32.50;;
434;SDS011;204;48.942;9.256;2023-12-07T07:00:28;40.27;;;33.43;;
434;SDS011;204;48.942;9.256;2023-12-07T07:02:53;42.00;;;33.33;;
434;SDS011;204;48.942;9.256;2023-12-07T07:05:19;41.77;;;34.10;;
434;SDS011;204;48.942;9.256;2023-12-07T07:07:44;40.47;;;34.57;;
434;SDS011;204;48.942;9.256;2023-12-07T07:10:10;48.60;;;35.70;;
434;SDS011;204;48.942;9.256;2023-12-07T07:12:37;38.17;;;30.75;;
434;SDS011;204;48.942;9.256;2023-12-07T07:15:03;39.60;;;33.13;;
434;SDS011;204;48.942;9.256;2023-12-07T07:17:29;42.38;;;33.17;;
434;SDS011;204;48.942;9.256;2023-12-07T07:19:55;36.23;;;31.13;;
434;SDS011;204;48.942;9.256;2023-12-07T07:22:20;37.60;;;32.03;;
434;SDS011;204;48.942;9.256;2023-12-07T07:24:47;35.67;;;29.63;;
434;SDS011;204;48.942;9.256;2023-12-07T07:27:12;36.22;;;28.30;;
434;SDS011;204;48.942;9.256;2023-12-07T07:29:38;31.23;;;26.93;;
434;SDS011;204;48.942;9.256;2023-12-07T07:32:04;31.03;;;27.67;;
434;SDS011;204;48.942;9.256;2023-12-07T07:34:30;31.40;;;27.42;;
434;SDS011;204;48.942;9.256;2023-12-07T07:36:56;29.27;;;24.60;;
434;SDS011;204;48.942;9.256;2023-12-07T07:39:21;35.13;;;27.83;;
434;SDS011;204;48.942;9.256;2023-12-07T07:41:47;32.57;;;28.50;;
434;SDS011;204;48.942;9.256;2023-12-07T07:44:13;32.40;;;27.93;;
434;SDS011;204;48.942;9.256;2023-12-07T07:46:40;31.93;;;28.00;;
434;SDS011;204;48.942;9.256;2023-12-07T07:49:06;28.67;;;26.13;;
434;SDS011;204;48.942;9.256;2023-12-07T07:51:32;30.58;;;26.40;;
434;SDS011;204;48.942;9.256;2023-12-07T07:54:01;30.67;;;27.40;;
434;SDS011;204;48.942;9.256;2023-12-07T07:56:26;32.05;;;27.27;;
434;SDS011;204;48.942;9.256;2023-12-07T07:58:52;28.10;;;23.77;;
434;SDS011;204;48.942;9.256;2023-12-07T08:01:17;27.63;;;25.20;;
434;SDS011;204;48.942;9.256;2023-12-07T08:03:43;27.83;;;23.20;;
434;SDS011;204;48.942;9.256;2023-12-07T08:06:09;26.47;;;25.17;;
434;SDS011;204;48.942;9.256;2023-12-07T08:08:34;26.90;;;25.13;;
434;SDS011;204;48.942;9.256;2023-12-07T08:11:00;27.60;;;24.67;;
434;SDS011;204;48.942;9.256;2023-12-07T08:13:26;28.80;;;24.52;;
434;SDS011;204;48.942;9.256;2023-12-07T08:15:52;26.92;;;22.08;;
434;SDS011;204;48.942;9.256;2023-12-07T08:18:18;26.70;;;20.50;;
434;SDS011;204;48.942;9.256;2023-12-07T08:20:44;26.43;;;23.40;;
434;SDS011;204;48.942;9.256;2023-12-07T08:23:09;24.23;;;22.20;;
434;SDS011;204;48.942;9.256;2023-12-07T08:25:38;29.92;;;24.63;;
434;SDS011;204;48.942;9.256;2023-12-07T08:28:05;56.38;;;41.40;;
434;SDS011;204;48.942;9.256;2023-12-07T08:30:30;49.80;;;40.07;;
434;SDS011;204;48.942;9.256;2023-12-07T08:32:56;50.83;;;37.30;;
434;SDS011;204;48.942;9.256;2023-12-07T08:35:21;60.07;;;44.93;;
434;SDS011;204;48.942;9.256;2023-12-07T08:37:48;49.83;;;39.42;;
434;SDS011;204;48.942;9.256;2023-12-07T08:40:13;38.67;;;32.47;;
434;SDS011;204;48.942;9.256;2023-12-07T08:42:40;29.35;;;24.33;;
434;SDS011;204;48.942;9.256;2023-12-07T08:45:08;31.23;;;27.73;;
434;SDS011;204;48.942;9.256;2023-12-07T08:47:34;29.25;;;24.98;;
434;SDS011;204;48.942;9.256;2023-12-07T08:50:00;26.23;;;22.27;;
434;SDS011;204;48.942;9.256;2023-12-07T08:52:25;26.90;;;23.40;;
434;SDS011;204;48.942;9.256;2023-12-07T08:54:52;26.35;;;22.90;;
434;SDS011;204;48.942;9.256;2023-12-07T08:57:18;25.00;;;22.50;;
434;SDS011;204;48.942;9.256;2023-12-07T08:59:43;24.38;;;22.02;;
434;SDS011;204;48.942;9.256;2023-12-07T09:02:09;24.33;;;22.23;;
434;SDS011;204;48.942;9.256;2023-12-07T09:04:35;24.73;;;21.70;;
434;SDS011;204;48.942;9.256;2023-12-07T09:07:00;24.57;;;22.00;;
434;SDS011;204;48.942;9.256;2023-12-07T09:09:26;28.00;;;23.67;;
434;SDS011;204;48.942;9.256;2023-12-07T09:11:51;24.87;;;22.50;;
434;SDS011;204;48.942;9.256;2023-12-07T09:14:18;25.48;;;22.95;;
434;SDS011;204;48.942;9.256;2023-12-07T09:16:44;27.13;;;22.23;;
434;SDS011;204;48.942;9.256;2023-12-07T09:19:10;25.50;;;21.98;;
434;SDS011;204;48.942;9.256;2023-12-07T09:21:37;30.52;;;26.38;;
434;SDS011;204;48.942;9.256;2023-12-07T09:24:03;27.85;;;24.27;;
434;SDS011;204;48.942;9.256;2023-12-07T09:26:30;30.20;;;23.98;;
434;SDS011;204;48.942;9.256;2023-12-07T09:28:56;22.47;;;20.20;;
434;SDS011;204;48.942;9.256;2023-12-07T09:31:22;22.87;;;20.60;;
434;SDS011;204;48.942;9.256;2023-12-07T09:33:47;26.87;;;20.37;;
434;SDS011;204;48.942;9.256;2023-12-07T09:36:16;24.60;;;20.30;;
434;SDS011;204;48.942;9.256;2023-12-07T09:38:43;22.20;;;19.63;;
434;SDS011;204;48.942;9.256;2023-12-07T09:41:09;19.40;;;18.42;;
434;SDS011;204;48.942;9.256;2023-12-07T09:43:35;37.50;;;34.28;;
434;SDS011;204;48.942;9.256;2023-12-07T09:46:01;21.70;;;20.07;;
434;SDS011;204;48.942;9.256;2023-12-07T09:48:26;21.03;;;18.53;;
434;SDS011;204;48.942;9.256;2023-12-07T09:50:54;20.63;;;18.70;;
434;SDS011;204;48.942;9.256;2023-12-07T09:53:21;22.60;;;19.60;;
434;SDS011;204;48.942;9.256;2023-12-07T09:55:47;23.85;;;21.20;;
434;SDS011;204;48.942;9.256;2023-12-07T09:58:13;21.87;;;19.40;;
434;SDS011;204;48.942;9.256;2023-12-07T10:00:39;20.60;;;18.67;;
434;SDS011;204;48.942;9.256;2023-12-07T10:03:05;21.13;;;18.40;;
434;SDS011;204;48.942;9.256;2023-12-07T10:05:33;20.00;;;18.30;;
434;SDS011;204;48.942;9.256;2023-12-07T10:07:59;20.02;;;18.60;;
434;SDS011;204;48.942;9.256;2023-12-07T10:10:24;24.57;;;20.67;;
434;SDS011;204;48.942;9.256;2023-12-07T10:12:51;22.42;;;19.85;;
434;SDS011;204;48.942;9.256;2023-12-07T10:15:19;21.00;;;17.85;;
434;SDS011;204;48.942;9.256;2023-12-07T10:17:47;20.67;;;17.98;;
434;SDS011;204;48.942;9.256;2023-12-07T10:20:18;21.48;;;17.20;;
434;SDS011;204;48.942;9.256;2023-12-07T10:22:48;17.83;;;16.48;;
434;SDS011;204;48.942;9.256;2023-12-07T10:25:26;17.88;;;17.00;;
434;SDS011;204;48.942;9.256;2023-12-07T10:27:51;22.47;;;16.97;;
434;SDS011;204;48.942;9.256;2023-12-07T10:30:17;18.77;;;16.00;;
434;SDS011;204;48.942;9.256;2023-12-07T10:32:49;17.67;;;16.02;;
434;SDS011;204;48.942;9.256;2023-12-07T10:35:15;15.85;;;15.05;;
434;SDS011;204;48.942;9.256;2023-12-07T10:37:42;21.35;;;15.75;;
434;SDS011;204;48.942;9.256;2023-12-07T10:40:08;16.60;;;14.07;;
434;SDS011;204;48.942;9.256;2023-12-07T10:42:34;16.17;;;15.23;;
434;SDS011;204;48.942;9.256;2023-12-07T10:45:03;16.20;;;14.80;;
434;SDS011;204;48.942;9.256;2023-12-07T10:47:31;19.95;;;15.98;;
434;SDS011;204;48.942;9.256;2023-12-07T10:50:00;21.92;;;16.63;;
434;SDS011;204;48.942;9.256;2023-12-07T10:52:30;22.42;;;19.48;;
434;SDS011;204;48.942;9.256;2023-12-07T10:55:02;17.17;;;15.48;;
434;SDS011;204;48.942;9.256;2023-12-07T10:57:31;16.58;;;14.35;;
434;SDS011;204;48.942;9.256;2023-12-07T10:59:59;18.65;;;14.13;;
434;SDS011;204;48.942;9.256;2023-12-07T11:02:29;15.55;;;14.65;;
434;SDS011;204;48.942;9.256;2023-12-07T11:04:57;15.35;;;14.32;;
434;SDS011;204;48.942;9.256;2023-12-07T11:07:25;15.52;;;13.75;;
434;SDS011;204;48.942;9.256;2023-12-07T11:10:22;16.05;;;15.13;;
434;SDS011;204;48.942;9.256;2023-12-07T11:12:56;15.95;;;14.73;;
434;SDS011;204;48.942;9.256;2023-12-07T11:15:34;13.40;;;12.50;;
434;SDS011;204;48.942;9.256;2023-12-07T11:18:01;16.23;;;14.93;;
434;SDS011;204;48.942;9.256;2023-12-07T11:20:43;16.35;;;14.25;;
434;SDS011;204;48.942;9.256;2023-12-07T11:23:11;17.08;;;14.93;;
434;SDS011;204;48.942;9.256;2023-12-07T11:25:41;15.32;;;13.38;;
434;SDS011;204;48.942;9.256;2023-12-07T11:28:09;14.55;;;13.85;;
434;SDS011;204;48.942;9.256;2023-12-07T11:30:36;15.98;;;15.20;;
434;SDS011;204;48.942;9.256;2023-12-07T11:33:05;13.30;;;12.60;;
434;SDS011;204;48.942;9.256;2023-12-07T11:35:32;14.52;;;13.85;;
434;SDS011;204;48.942;9.256;2023-12-07T11:40:34;13.07;;;12.35;;
434;SDS011;204;48.942;9.256;2023-12-07T11:43:00;13.15;;;12.45;;
434;SDS011;204;48.942;9.256;2023-12-07T11:45:46;14.07;;;13.02;;
434;SDS011;204;48.942;9.256;2023-12-07T11:48:14;13.05;;;11.65;;
434;SDS011;204;48.942;9.256;2023-12-07T11:53:33;15.27;;;11.88;;
434;SDS011;204;48.942;9.256;2023-12-07T11:56:04;15.75;;;11.88;;
434;SDS011;204;48.942;9.256;2023-12-07T11:58:31;13.00;;;12.05;;
434;SDS011;204;48.942;9.256;2023-12-07T12:00:58;13.73;;;12.80;;
434;SDS011;204;48.942;9.256;2023-12-07T12:03:25;12.75;;;11.43;;
434;SDS011;204;48.942;9.256;2023-12-07T12:05:51;12.35;;;11.70;;
434;SDS011;204;48.942;9.256;2023-12-07T12:08:17;14.27;;;12.73;;
434;SDS011;204;48.942;9.256;2023-12-07T12:10:44;22.77;;;15.65;;
434;SDS011;204;48.942;9.256;2023-12-07T12:13:10;23.70;;;16.65;;
434;SDS011;204;48.942;9.256;2023-12-07T12:15:39;28.00;;;19.08;;
434;SDS011;204;48.942;9.256;2023-12-07T12:18:05;28.95;;;19.45;;
434;SDS011;204;48.942;9.256;2023-12-07T12:20:31;15.63;;;13.80;;
434;SDS011;204;48.942;9.256;2023-12-07T12:22:57;15.53;;;13.00;;
434;SDS011;204;48.942;9.256;2023-12-07T12:25:27;13.55;;;10.88;;
434;SDS011;204;48.942;9.256;2023-12-07T12:27:55;15.00;;;11.30;;
434;SDS011;204;48.942;9.256;2023-12-07T12:30:23;20.08;;;16.67;;
434;SDS011;204;48.942;9.256;2023-12-07T12:32:49;14.68;;;12.50;;
434;SDS011;204;48.942;9.256;2023-12-07T12:35:15;12.30;;;11.37;;
434;SDS011;204;48.942;9.256;2023-12-07T12:37:44;14.60;;;11.35;;
434;SDS011;204;48.942;9.256;2023-12-07T12:40:11;12.60;;;10.07;;
434;SDS011;204;48.942;9.256;2023-12-07T12:42:42;10.48;;;9.90;;
434;SDS011;204;48.942;9.256;2023-12-07T12:45:09;10.82;;;9.48;;
434;SDS011;204;48.942;9.256;2023-12-07T12:47:38;10.20;;;9.38;;
434;SDS011;204;48.942;9.256;2023-12-07T12:50:05;11.02;;;10.43;;
434;SDS011;204;48.942;9.256;2023-12-07T12:52:32;11.20;;;8.98;;
434;SDS011;204;48.942;9.256;2023-12-07T12:54:58;9.18;;;8.43;;
434;SDS011;204;48.942;9.256;2023-12-07T12:57:24;8.33;;;7.90;;
434;SDS011;204;48.942;9.256;2023-12-07T12:59:50;11.20;;;7.93;;
434;SDS011;204;48.942;9.256;2023-12-07T13:02:16;11.25;;;7.70;;
434;SDS011;204;48.942;9.256;2023-12-07T13:04:43;6.20;;;5.63;;
434;SDS011;204;48.942;9.256;2023-12-07T13:07:10;8.00;;;6.18;;
434;SDS011;204;48.942;9.256;2023-12-07T13:09:38;6.72;;;6.30;;
434;SDS011;204;48.942;9.256;2023-12-07T13:12:05;7.60;;;5.82;;
434;SDS011;204;48.942;9.256;2023-12-07T13:14:31;11.27;;;9.20;;
434;SDS011;204;48.942;9.256;2023-12-07T13:17:02;6.03;;;5.43;;
434;SDS011;204;48.942;9.256;2023-12-07T13:19:29;8.75;;;6.35;;
434;SDS011;204;48.942;9.256;2023-12-07T13:21:54;5.43;;;5.13;;
434;SDS011;204;48.942;9.256;2023-12-07T13:24:20;6.70;;;5.50;;
434;SDS011;204;48.942;9.256;2023-12-07T13:26:46;5.33;;;5.03;;
434;SDS011;204;48.942;9.256;2023-12-07T13:29:12;4.90;;;4.60;;
434;SDS011;204;48.942;9.256;2023-12-07T13:31:38;6.10;;;4.77;;
434;SDS011;204;48.942;9.256;2023-12-07T13:34:03;7.73;;;5.10;;
434;SDS011;204;48.942;9.256;2023-12-07T13:36:29;7.67;;;4.50;;
434;SDS011;204;48.942;9.256;2023-12-07T13:38:56;5.63;;;4.88;;
434;SDS011;204;48.942;9.256;2023-12-07T13:41:22;4.97;;;4.40;;
434;SDS011;204;48.942;9.256;2023-12-07T13:43:48;5.53;;;4.57;;
434;SDS011;204;48.942;9.256;2023-12-07T13:46:15;7.13;;;6.55;;
434;SDS011;204;48.942;9.256;2023-12-07T13:48:44;7.05;;;5.07;;
434;SDS011;204;48.942;9.256;2023-12-07T13:51:10;6.22;;;4.60;;
434;SDS011;204;48.942;9.256;2023-12-07T13:53:35;7.73;;;5.90;;
434;SDS011;204;48.942;9.256;2023-12-07T13:56:02;7.25;;;5.63;;
434;SDS011;204;48.942;9.256;2023-12-07T13:58:29;40.97;;;33.55;;
434;SDS011;204;48.942;9.256;2023-12-07T14:00:55;199.45;;;118.57;;
434;SDS011;204;48.942;9.256;2023-12-07T14:03:20;332.97;;;224.23;;
434;SDS011;204;48.942;9.256;2023-12-07T14:05:46;57.03;;;43.77;;
434;SDS011;204;48.942;9.256;2023-12-07T14:08:12;73.50;;;56.90;;
434;SDS011;204;48.942;9.256;2023-12-07T14:10:38;104.03;;;84.77;;
434;SDS011;204;48.942;9.256;2023-12-07T14:13:03;101.53;;;88.13;;
434;SDS011;204;48.942;9.256;2023-12-07T14:15:29;88.20;;;83.97;;
434;SDS011;204;48.942;9.256;2023-12-07T14:17:57;35.00;;;33.30;;
434;SDS011;204;48.942;9.256;2023-12-07T14:20:24;8.13;;;7.13;;
434;SDS011;204;48.942;9.256;2023-12-07T14:22:52;6.88;;;6.47;;
434;SDS011;204;48.942;9.256;2023-12-07T14:25:18;4.60;;;3.75;;
434;SDS011;204;48.942;9.256;2023-12-07T14:27:44;5.60;;;5.07;;
434;SDS011;204;48.942;9.256;2023-12-07T14:30:10;5.30;;;3.87;;
434;SDS011;204;48.942;9.256;2023-12-07T14:32:36;6.75;;;6.35;;
434;SDS011;204;48.942;9.256;2023-12-07T14:35:01;9.17;;;8.67;;
434;SDS011;204;48.942;9.256;2023-12-07T14:37:27;15.50;;;14.70;;
434;SDS011;204;48.942;9.256;2023-12-07T14:39:53;22.08;;;20.98;;
434;SDS011;204;48.942;9.256;2023-12-07T14:42:19;10.07;;;9.57;;
434;SDS011;204;48.942;9.256;2023-12-07T14:44:44;9.73;;;8.20;;
434;SDS011;204;48.942;9.256;2023-12-07T14:47:10;6.80;;;4.80;;
434;SDS011;204;48.942;9.256;2023-12-07T14:49:36;5.10;;;4.70;;
434;SDS011;204;48.942;9.256;2023-12-07T14:52:01;5.17;;;4.30;;
434;SDS011;204;48.942;9.256;2023-12-07T14:54:27;6.33;;;4.00;;
434;SDS011;204;48.942;9.256;2023-12-07T14:56:53;5.23;;;4.57;;
434;SDS011;204;48.942;9.256;2023-12-07T14:59:18;4.37;;;4.17;;
434;SDS011;204;48.942;9.256;2023-12-07T15:01:47;52.38;;;49.83;;
434;SDS011;204;48.942;9.256;2023-12-07T15:04:14;39.00;;;37.10;;
434;SDS011;204;48.942;9.256;2023-12-07T15:06:40;39.50;;;37.60;;
434;SDS011;204;48.942;9.256;2023-12-07T15:09:05;23.50;;;22.33;;
434;SDS011;204;48.942;9.256;2023-12-07T15:11:32;13.70;;;13.00;;
434;SDS011;204;48.942;9.256;2023-12-07T15:13:59;20.38;;;19.38;;
434;SDS011;204;48.942;9.256;2023-12-07T15:16:25;8.68;;;8.18;;
434;SDS011;204;48.942;9.256;2023-12-07T15:18:51;6.70;;;6.30;;